Data for 02/14/2007

Time Sea-Level Adjusted Pressure Absolute Pressure Temperature Relative Humidity Dew Point   
(mb) (inHg) (mb) (inHg) (C) (F) (%) (C) (F)
00:05 1019 30.09 848 25.04 -8.4 16.9 88 -10.1 13.8
00:10 1019 30.09 848 25.04 -8.5 16.7 88 -10.1 13.7
00:15 1019 30.09 848 25.04 -8.4 16.9 88 -10 14
00:20 1019 30.09 848 25.04 -8.5 16.8 88 -10.1 13.9
00:25 1019 30.09 848 25.04 -8.7 16.4 90 -10.1 13.8
00:30 1019 30.09 848 25.04 -8.8 16.1 90 -10.2 13.7
00:35 1019 30.09 848 25.04 -8.7 16.3 90 -10.1 13.9
00:40 1019 30.09 848 25.04 -8.5 16.7 89 -10 14
00:45 1019 30.09 848 25.04 -8.5 16.8 89 -10 14
00:50 1019 30.09 848 25.04 -8.7 16.4 90 -10.1 13.8
00:55 1019 30.09 848 25.04 -8.8 16.2 90 -10.2 13.6
01:00 1019 30.09 848 25.04 -8.9 16.1 90 -10.2 13.7
01:05 1019 30.09 848 25.04 -8.9 16.1 91 -10.1 13.8
01:10 1019 30.09 848 25.04 -8.7 16.3 90 -10.1 13.9
01:15 1019 30.09 848 25.04 -8.7 16.3 91 -10 14
01:20 1019 30.09 848 25.04 -8.8 16.2 92 -9.9 14.2
01:25 1019 30.09 848 25.04 -8.5 16.7 91 -9.8 14.4
01:30 1019 30.09 848 25.04 -8.4 16.9 90 -9.7 14.5
01:35 1019 30.09 848 25.04 -8.3 17.1 90 -9.7 14.6
01:40 1019 30.09 848 25.04 -8.1 17.4 89 -9.7 14.6
01:45 1019 30.09 848 25.04 -8.1 17.4 89 -9.6 14.6
01:50 1019 30.09 848 25.04 -8.2 17.3 89 -9.7 14.6
01:55 1019 30.09 848 25.04 -8 17.5 89 -9.6 14.7
02:00 1019 30.09 848 25.04 -7.8 17.9 87 -9.7 14.6
02:05 1019 30.09 848 25.04 -7.9 17.8 87 -9.7 14.5
02:10 1019 30.09 848 25.04 -8 17.6 88 -9.7 14.5
02:15 1019 30.09 848 25.04 -8 17.6 87 -9.8 14.3
02:20 1019 30.09 848 25.04 -8.4 17 88 -10 13.9
02:25 1019 30.09 848 25.04 -8.5 16.8 88 -10.1 13.8
02:30 1019 30.09 848 25.04 -8.6 16.6 88 -10.3 13.5
02:35 1019 30.09 848 25.04 -8.7 16.4 88 -10.3 13.5
02:40 1019 30.09 848 25.04 -8.8 16.1 89 -10.3 13.5
02:45 1019 30.09 848 25.04 -8.8 16.2 89 -10.3 13.5
02:50 1019 30.09 848 25.04 -8.8 16.2 89 -10.3 13.4
02:55 1019 30.09 849 25.07 -8.8 16.1 89 -10.4 13.4
03:00 1019 30.09 849 25.07 -8.9 16 88 -10.5 13.1
03:05 1019 30.09 849 25.07 -9.1 15.7 88 -10.7 12.8
03:10 1019 30.09 849 25.07 -9.2 15.5 87 -10.9 12.3
03:15 1020 30.12 849 25.07 -9.1 15.6 86 -11 12.1
03:20 1020 30.12 849 25.07 -9.1 15.6 86 -11.1 12
03:25 1020 30.12 849 25.07 -9.1 15.5 86 -11.1 11.9
03:30 1020 30.12 849 25.07 -9.2 15.4 86 -11.2 11.8
03:35 1020 30.12 849 25.07 -9.3 15.2 86 -11.2 11.8
03:40 1020 30.12 849 25.07 -9.4 15 86 -11.4 11.5
03:45 1020 30.12 849 25.07 -9.7 14.5 88 -11.4 11.5
03:50 1020 30.12 849 25.07 -9.8 14.5 88 -11.4 11.5
03:55 1020 30.12 849 25.07 -9.8 14.4 88 -11.5 11.4
04:00 1020 30.12 849 25.07 -9.9 14.2 88 -11.5 11.3
04:05 1020 30.12 849 25.07 -10 14.1 88 -11.6 11.2
04:10 1020 30.12 849 25.07 -10 13.9 89 -11.6 11.2
04:15 1020 30.12 849 25.07 -10 14 88 -11.6 11.1
04:20 1020 30.12 849 25.07 -10.1 13.9 89 -11.6 11.1
04:25 1020 30.12 849 25.07 -10.2 13.7 88 -11.7 10.9
04:30 1020 30.12 849 25.07 -11.1 12 84 -13.4 7.9
04:35 1020 30.12 849 25.07 -12.6 9.4 86 -14.4 6
04:40 1020 30.12 849 25.07 -13.3 8 87 -15.1 4.8
04:45 1020 30.12 849 25.07 -13.7 7.3 88 -15.4 4.3
04:50 1020 30.12 849 25.07 -14 6.9 88 -15.6 3.9
04:55 1020 30.12 850 25.1 -14.1 6.6 87 -15.8 3.6
05:00 1020 30.12 850 25.1 -14.2 6.4 88 -15.8 3.5
05:05 1020 30.12 850 25.1 -14.3 6.4 89 -15.8 3.6
05:10 1020 30.12 850 25.1 -14.1 6.6 89 -15.6 4
05:15 1020 30.12 850 25.1 -14.1 6.6 89 -15.6 4
05:20 1020 30.12 850 25.1 -14.1 6.6 90 -15.5 4.2
05:25 1021 30.15 850 25.1 -13.9 6.9 90 -15.3 4.5
05:30 1021 30.15 850 25.1 -13.9 7 89 -15.3 4.4
05:35 1021 30.15 850 25.1 -13.9 7 89 -15.3 4.5
05:40 1021 30.15 850 25.1 -13.9 7.1 89 -15.3 4.5
05:45 1021 30.15 850 25.1 -13.9 6.9 89 -15.4 4.3
05:50 1021 30.15 850 25.1 -14 6.9 89 -15.4 4.3
05:55 1021 30.15 850 25.1 -13.9 7 89 -15.3 4.5
06:00 1021 30.15 850 25.1 -13.7 7.3 90 -15.1 4.9
06:05 1021 30.15 850 25.1 -13.5 7.7 89 -14.9 5.1
06:10 1021 30.15 850 25.1 -13.4 7.8 90 -14.8 5.4
06:15 1021 30.15 850 25.1 -13.3 8 90 -14.7 5.6
06:20 1021 30.15 850 25.1 -13.2 8.2 89 -14.6 5.7
06:25 1021 30.15 850 25.1 -13.1 8.4 89 -14.5 5.9
06:30 1021 30.15 850 25.1 -13.1 8.4 89 -14.6 5.8
06:35 1021 30.15 850 25.1 -13.1 8.4 89 -14.5 5.9
06:40 1021 30.15 850 25.1 -13 8.6 90 -14.4 6.1
06:45 1021 30.15 850 25.1 -13 8.7 89 -14.4 6.2
06:50 1021 30.15 850 25.1 -12.9 8.9 89 -14.3 6.2
06:55 1021 30.15 850 25.1 -12.9 8.9 90 -14.2 6.4
07:00 1021 30.15 850 25.1 -12.8 9 90 -14.2 6.5
07:05 1021 30.15 850 25.1 -12.9 8.7 89 -14.4 6.1
07:10 1021 30.15 850 25.1 -13 8.7 89 -14.4 6.1
07:15 1021 30.15 850 25.1 -13 8.6 90 -14.3 6.2
07:20 1021 30.15 850 25.1 -12.9 8.8 90 -14.2 6.5
07:25 1021 30.15 851 25.13 -12.7 9.1 90 -14 6.8
07:30 1021 30.15 851 25.13 -12.7 9.1 90 -14.1 6.7
07:35 1021 30.15 851 25.13 -12.6 9.3 91 -13.9 7
07:40 1022 30.18 851 25.13 -12.5 9.5 90 -13.8 7.1
07:45 1022 30.18 851 25.13 -12.5 9.5 90 -13.8 7.1
07:50 1022 30.18 851 25.13 -12.4 9.7 91 -13.6 7.6
07:55 1022 30.18 851 25.13 -12.2 10 90 -13.6 7.5
08:00 1022 30.18 851 25.13 -12.2 10.1 90 -13.5 7.6
08:05 1022 30.18 851 25.13 -12.4 9.8 89 -13.8 7.2
08:10 1022 30.18 851 25.13 -12.5 9.4 90 -13.9 6.9
08:15 1022 30.18 851 25.13 -12.5 9.5 90 -13.9 7.1
08:20 1022 30.18 851 25.13 -12.4 9.6 90 -13.8 7.2
08:25 1022 30.18 851 25.13 -12.2 10 90 -13.6 7.6
08:30 1022 30.18 851 25.13 -12.3 9.9 89 -13.7 7.4
08:35 1022 30.18 851 25.13 -12.1 10.2 90 -13.5 7.7
08:40 1022 30.18 851 25.13 -12.1 10.1 91 -13.4 7.9
08:45 1022 30.18 851 25.13 -11.9 10.6 89 -13.4 7.9
08:50 1022 30.18 851 25.13 -11.8 10.9 89 -13.2 8.3
08:55 1022 30.18 851 25.13 -11.5 11.4 89 -12.9 8.7
09:00 1022 30.18 851 25.13 -11.3 11.7 89 -12.8 9
09:05 1022 30.18 851 25.13 -11.1 12 89 -12.5 9.4
09:10 1022 30.18 851 25.13 -10.8 12.6 88 -12.4 9.7
09:15 1022 30.18 851 25.13 -11 12.3 88 -12.6 9.2
09:20 1022 30.18 851 25.13 -11.1 12.1 89 -12.6 9.3
09:25 1022 30.18 851 25.13 -10.8 12.6 87 -12.6 9.4
09:30 1022 30.18 851 25.13 -10.7 12.8 87 -12.5 9.5
09:35 1022 30.18 851 25.13 -10.6 13 86 -12.5 9.5
09:40 1022 30.18 851 25.13 -10.6 13 87 -12.3 9.9
09:45 1022 30.18 851 25.13 -10.2 13.6 88 -11.9 10.6
09:50 1022 30.18 851 25.13 -10 14 86 -11.9 10.5
09:55 1022 30.18 851 25.13 -9.6 14.6 85 -11.7 10.9
10:00 1022 30.18 851 25.13 -9.5 14.9 85 -11.7 11
10:05 1022 30.18 851 25.13 -9.5 15 84 -11.7 10.9
10:10 1022 30.18 851 25.13 -9.9 14.3 85 -12 10.4
10:15 1022 30.18 851 25.13 -9.5 14.9 86 -11.5 11.4
10:20 1022 30.18 851 25.13 -9 15.9 84 -11.3 11.7
10:25 1022 30.18 851 25.13 -9.2 15.5 82 -11.7 11
10:30 1022 30.18 851 25.13 -9.3 15.2 81 -12 10.3
10:35 1022 30.18 851 25.13 -8.9 16 80 -11.8 10.7
10:40 1022 30.18 851 25.13 -8.8 16.1 81 -11.5 11.3
10:45 1022 30.18 851 25.13 -8.1 17.5 79 -11.1 12.1
10:50 1022 30.18 851 25.13 -7.9 17.7 77 -11.2 11.8
10:55 1022 30.18 851 25.13 -8.1 17.4 79 -11.1 12
11:00 1022 30.18 851 25.13 -8 17.6 77 -11.3 11.6
11:05 1022 30.18 851 25.13 -8.2 17.3 79 -11.2 11.8
11:10 1022 30.18 851 25.13 -8.3 17.1 77 -11.6 11.1
11:15 1022 30.18 851 25.13 -8.1 17.4 77 -11.5 11.3
11:20 1022 30.18 851 25.13 -7.9 17.8 76 -11.4 11.5
11:25 1022 30.18 851 25.13 -8 17.7 78 -11.2 11.9
11:30 1022 30.18 851 25.13 -7.7 18.1 75 -11.3 11.6
11:35 1022 30.18 851 25.13 -7.6 18.3 77 -11.1 12.1
11:40 1022 30.18 851 25.13 -7.4 18.7 76 -11 12.2
11:45 1022 30.18 851 25.13 -7 19.4 75 -10.8 12.6
11:50 1021 30.15 851 25.13 -7.5 18.6 75 -11.1 12
11:55 1021 30.15 851 25.13 -7.6 18.3 76 -11.2 11.8
12:00 1021 30.15 851 25.13 -7.5 18.5 76 -11 12.2
12:05 1021 30.15 851 25.13 -7 19.4 75 -10.8 12.6
12:10 1021 30.15 851 25.13 -6.4 20.5 73 -10.5 13.1
12:15 1021 30.15 851 25.13 -6 21.2 71 -10.4 13.2
12:20 1021 30.15 850 25.1 -6.4 20.5 72 -10.6 13
12:25 1021 30.15 850 25.1 -6.8 19.7 74 -10.6 12.9
12:30 1021 30.15 850 25.1 -6.8 19.8 75 -10.6 12.9
12:35 1021 30.15 850 25.1 -6.4 20.6 73 -10.5 13.1
12:40 1021 30.15 850 25.1 -5.9 21.4 71 -10.3 13.4
12:45 1021 30.15 850 25.1 -6 21.3 73 -10.1 13.9
12:50 1021 30.15 850 25.1 -6.1 21.1 71 -10.5 13.1
12:55 1021 30.15 850 25.1 -5.7 21.7 70 -10.4 13.2
13:00 1021 30.15 850 25.1 -5.6 21.9 68 -10.5 13.1
13:05 1021 30.15 850 25.1 -5.5 22.2 69 -10.2 13.6
13:10 1021 30.15 850 25.1 -5.5 22.1 69 -10.4 13.3
13:15 1021 30.15 850 25.1 -5.4 22.2 69 -10.3 13.4
13:20 1021 30.15 850 25.1 -5.4 22.2 68 -10.4 13.4
13:25 1021 30.15 850 25.1 -5.9 21.5 71 -10.3 13.5
13:30 1021 30.15 850 25.1 -5.7 21.7 68 -10.8 12.6
13:35 1021 30.15 850 25.1 -6.1 21 71 -10.5 13.1
13:40 1021 30.15 850 25.1 -6.1 21.1 71 -10.6 13
13:45 1021 30.15 850 25.1 -5.5 22.2 67 -10.6 13
13:50 1020 30.12 850 25.1 -5.4 22.3 69 -10.1 13.8
13:55 1020 30.12 850 25.1 -4.9 23.1 69 -9.8 14.3
14:00 1020 30.12 850 25.1 -5.5 22.1 72 -9.7 14.5
14:05 1020 30.12 849 25.07 -5.1 22.8 68 -10.2 13.7
14:10 1020 30.12 849 25.07 -4.6 23.7 67 -9.8 14.4
14:15 1020 30.12 849 25.07 -4.6 23.8 67 -9.8 14.3
14:20 1020 30.12 849 25.07 -5 23 70 -9.7 14.6
14:25 1020 30.12 849 25.07 -5.4 22.2 72 -9.8 14.4
14:30 1020 30.12 849 25.07 -5.5 22 72 -9.8 14.4
14:35 1020 30.12 849 25.07 -5.5 22.1 71 -9.9 14.2
14:40 1020 30.12 849 25.07 -5.5 22 74 -9.6 14.8
14:45 1020 30.12 849 25.07 -4.9 23.2 69 -9.7 14.5
14:50 1020 30.12 849 25.07 -4.3 24.3 71 -8.8 16.1
14:55 1020 30.12 849 25.07 -4.7 23.6 70 -9.4 15.1
15:00 1020 30.12 849 25.07 -4.6 23.7 70 -9.2 15.4
15:05 1020 30.12 849 25.07 -4.2 24.4 69 -9 15.8
15:10 1020 30.12 849 25.07 -4.1 24.6 68 -9.2 15.4
15:15 1020 30.12 849 25.07 -4.2 24.5 69 -9 15.8
15:20 1020 30.12 849 25.07 -4.7 23.5 73 -8.9 16
15:25 1020 30.12 849 25.07 -4.9 23.3 72 -9.1 15.6
15:30 1020 30.12 849 25.07 -4.6 23.7 72 -8.9 16
15:35 1020 30.12 849 25.07 -4.4 24 70 -9.1 15.6
15:40 1020 30.12 849 25.07 -4.3 24.3 70 -9.1 15.7
15:45 1020 30.12 849 25.07 -4.2 24.4 71 -8.7 16.4
15:50 1020 30.12 849 25.07 -4.4 24.1 72 -8.6 16.5
15:55 1020 30.12 849 25.07 -4.7 23.5 73 -8.9 16
16:00 1020 30.12 849 25.07 -4.6 23.7 73 -8.8 16.2
16:05 1020 30.12 849 25.07 -4.3 24.2 73 -8.4 16.8
16:10 1020 30.12 849 25.07 -3.9 24.9 72 -8.3 17
16:15 1020 30.12 849 25.07 -4.1 24.6 72 -8.4 16.9
16:20 1020 30.12 849 25.07 -4.5 23.9 74 -8.4 16.8
16:25 1020 30.12 849 25.07 -4.7 23.5 76 -8.4 16.9
16:30 1020 30.12 849 25.07 -4.9 23.1 75 -8.7 16.3
16:35 1020 30.12 849 25.07 -5 23 76 -8.7 16.4
16:40 1020 30.12 849 25.07 -4.9 23.1 75 -8.6 16.5
16:45 1020 30.12 849 25.07 -5.2 22.7 76 -8.7 16.3
16:50 1020 30.12 849 25.07 -5.4 22.2 75 -9.1 15.6
16:55 1020 30.12 849 25.07 -6 21.1 79 -9.2 15.5
17:00 1020 30.12 849 25.07 -6.2 20.8 79 -9.3 15.2
17:05 1020 30.12 849 25.07 -6.1 20.9 80 -9.1 15.7
17:10 1020 30.12 849 25.07 -6 21.2 79 -9.1 15.7
17:15 1020 30.12 849 25.07 -6.1 20.9 79 -9.2 15.5
17:20 1020 30.12 849 25.07 -6.1 20.9 79 -9.2 15.5
17:25 1020 30.12 849 25.07 -6 21.2 79 -9 15.7
17:30 1020 30.12 849 25.07 -6 21.2 80 -9 15.9
17:35 1020 30.12 849 25.07 -6 21.2 80 -9 15.8
17:40 1020 30.12 849 25.07 -6.2 20.9 82 -8.8 16.1
17:45 1020 30.12 849 25.07 -6 21.2 81 -8.8 16.2
17:50 1020 30.12 849 25.07 -5.8 21.5 80 -8.7 16.3
17:55 1020 30.12 849 25.07 -5.8 21.6 80 -8.7 16.3
18:00 1020 30.12 849 25.07 -6 21.2 80 -8.9 16
18:05 1020 30.12 849 25.07 -6.7 20 82 -9.2 15.4
18:10 1020 30.12 849 25.07 -7.5 18.5 85 -9.6 14.7
18:15 1020 30.12 849 25.07 -7.8 18.1 86 -9.7 14.5
18:20 1020 30.12 849 25.07 -7.9 17.9 88 -9.5 14.9
18:25 1020 30.12 849 25.07 -7.4 18.6 84 -9.6 14.6
18:30 1020 30.12 849 25.07 -7.6 18.4 86 -9.5 15
18:35 1020 30.12 849 25.07 -7.5 18.4 85 -9.6 14.7
18:40 1020 30.12 849 25.07 -7.6 18.3 87 -9.4 15
18:45 1020 30.12 849 25.07 -7.3 18.8 85 -9.4 15.1
18:50 1020 30.12 849 25.07 -7.3 18.9 85 -9.4 15.1
18:55 1020 30.12 849 25.07 -7.3 19 85 -9.4 15
19:00 1020 30.12 849 25.07 -7.2 19 85 -9.4 15.1
19:05 1020 30.12 849 25.07 -7.3 18.9 85 -9.4 15.1
19:10 1020 30.12 849 25.07 -7.2 19 86 -9.2 15.4
19:15 1020 30.12 849 25.07 -7.1 19.1 85 -9.2 15.4
19:20 1020 30.12 849 25.07 -7.1 19.3 85 -9.1 15.6
19:25 1020 30.12 849 25.07 -7 19.4 84 -9.2 15.5
19:30 1020 30.12 849 25.07 -7.2 19.1 86 -9.1 15.6
19:35 1020 30.12 849 25.07 -7.3 18.9 86 -9.2 15.5
19:40 1020 30.12 849 25.07 -7.3 18.9 87 -9.1 15.6
19:45 1020 30.12 849 25.07 -7.3 19 87 -9.1 15.7
19:50 1020 30.12 849 25.07 -7 19.3 86 -9 15.8
19:55 1020 30.12 849 25.07 -6.8 19.7 86 -8.8 16.2
20:00 1020 30.12 849 25.07 -6.9 19.7 86 -8.8 16.2
20:05 1020 30.12 849 25.07 -6.8 19.8 86 -8.7 16.4
20:10 1020 30.12 849 25.07 -6.7 20 86 -8.7 16.4
20:15 1020 30.12 849 25.07 -6.4 20.4 85 -8.6 16.6
20:20 1020 30.12 849 25.07 -6.3 20.6 84 -8.6 16.5
20:25 1020 30.12 849 25.07 -6.3 20.7 84 -8.5 16.7
20:30 1020 30.12 849 25.07 -6.3 20.6 84 -8.6 16.6
20:35 1020 30.12 849 25.07 -6.4 20.5 84 -8.6 16.5
20:40 1020 30.12 849 25.07 -6.5 20.3 85 -8.7 16.3
20:45 1020 30.12 849 25.07 -6.7 19.9 86 -8.7 16.4
20:50 1020 30.12 849 25.07 -6.9 19.6 88 -8.6 16.6
20:55 1020 30.12 849 25.07 -7 19.4 88 -8.7 16.3
21:00 1020 30.12 849 25.07 -7 19.4 88 -8.7 16.3
21:05 1019 30.09 849 25.07 -6.8 19.8 88 -8.5 16.7
21:10 1019 30.09 849 25.07 -6.8 19.7 88 -8.5 16.7
21:15 1020 30.12 849 25.07 -6.7 19.9 88 -8.4 16.8
21:20 1019 30.09 849 25.07 -6.7 20 88 -8.4 17
21:25 1020 30.12 849 25.07 -6.6 20.2 88 -8.2 17.2
21:30 1020 30.12 849 25.07 -6.4 20.4 88 -8.1 17.5
21:35 1019 30.09 849 25.07 -6.3 20.7 88 -8 17.6
21:40 1019 30.09 849 25.07 -6.3 20.7 86 -8.2 17.3
21:45 1019 30.09 849 25.07 -6.3 20.7 87 -8.1 17.4
21:50 1019 30.09 849 25.07 -6.3 20.7 87 -8.1 17.4
21:55 1019 30.09 848 25.04 -6.3 20.6 88 -8.1 17.5
22:00 1019 30.09 848 25.04 -6.4 20.5 88 -8.1 17.4
22:05 1019 30.09 848 25.04 -6.2 20.8 87 -8 17.6
22:10 1019 30.09 848 25.04 -6 21.3 86 -7.9 17.8
22:15 1019 30.09 848 25.04 -6 21.2 87 -7.9 17.8
22:20 1019 30.09 848 25.04 -5.7 21.7 86 -7.7 18.1
22:25 1019 30.09 848 25.04 -5.4 22.2 85 -7.6 18.2
22:30 1019 30.09 848 25.04 -5.2 22.6 84 -7.6 18.4
22:35 1019 30.09 848 25.04 -4.9 23.2 82 -7.5 18.5
22:40 1019 30.09 848 25.04 -4.8 23.3 83 -7.4 18.7
22:45 1019 30.09 848 25.04 -4.9 23.1 82 -7.5 18.5
22:50 1019 30.09 848 25.04 -5.3 22.4 85 -7.5 18.5
22:55 1019 30.09 848 25.04 -5.2 22.6 85 -7.3 18.8
23:00 1019 30.09 848 25.04 -4.8 23.4 84 -7.1 19.1
23:05 1019 30.09 848 25.04 -4.5 24 83 -7 19.4
23:10 1019 30.09 848 25.04 -4.4 24.1 83 -6.9 19.6
23:15 1019 30.09 848 25.04 -4.3 24.3 82 -6.9 19.5
23:20 1019 30.09 848 25.04 -4.1 24.6 81 -6.9 19.7
23:25 1019 30.09 848 25.04 -3.9 25 81 -6.7 19.9
23:30 1019 30.09 848 25.04 -3.6 25.5 78 -6.8 19.7
23:35 1019 30.09 848 25.04 -3.3 26.1 77 -6.7 19.9
23:40 1019 30.09 848 25.04 -3 26.6 75 -6.8 19.7
23:45 1019 30.09 848 25.04 -2.9 26.7 75 -6.8 19.8
23:50 1019 30.09 848 25.04 -2.9 26.8 74 -6.8 19.7
23:55 1018 30.06 848 25.04 -2.8 27 75 -6.6 20.2
24:00 1018 30.06 848 25.04 -2.9 26.7 76 -6.5 20.3